createdAt,value
2022-08-20T00:00:29.905Z,2.70
2022-08-20T00:03:01.376Z,2.77
2022-08-20T00:05:32.872Z,2.80
2022-08-20T00:08:00.469Z,2.90
2022-08-20T00:10:30.361Z,2.83
2022-08-20T00:13:00.691Z,3.10
2022-08-20T00:15:32.317Z,3.50
2022-08-20T00:18:03.127Z,3.17
2022-08-20T00:20:40.244Z,3.10
2022-08-20T00:23:10.475Z,3.10
2022-08-20T00:25:40.682Z,3.00
2022-08-20T00:28:07.732Z,3.27
2022-08-20T00:30:36.615Z,3.67
2022-08-20T00:33:07.672Z,2.60
2022-08-20T00:35:40.122Z,3.27
2022-08-20T00:38:07.377Z,2.53
2022-08-20T00:40:43.957Z,3.20
2022-08-20T00:43:38.066Z,2.87
2022-08-20T00:46:10.214Z,2.67
2022-08-20T00:48:42.208Z,2.80
2022-08-20T00:51:13.166Z,2.87
2022-08-20T00:53:40.516Z,2.37
2022-08-20T00:56:13.668Z,2.20
2022-08-20T00:58:45.174Z,2.67
2022-08-20T01:01:15.725Z,2.20
2022-08-20T01:03:42.847Z,2.13
2022-08-20T01:06:11.894Z,2.20
2022-08-20T01:08:41.016Z,2.90
2022-08-20T01:11:21.084Z,1.87
2022-08-20T01:13:51.023Z,2.10
2022-08-20T01:16:24.499Z,2.03
2022-08-20T01:18:52.980Z,2.07
2022-08-20T01:21:23.926Z,2.07
2022-08-20T01:24:01.737Z,2.17
2022-08-20T01:26:36.551Z,2.10
2022-08-20T01:29:11.171Z,1.90
2022-08-20T01:31:40.478Z,2.07
2022-08-20T01:34:12.858Z,2.00
2022-08-20T01:36:48.404Z,2.13
2022-08-20T01:39:23.061Z,2.53
2022-08-20T01:42:07.150Z,1.90
2022-08-20T01:44:35.959Z,2.07
2022-08-20T01:47:15.968Z,1.90
2022-08-20T01:49:46.882Z,2.07
2022-08-20T01:52:22.216Z,2.30
2022-08-20T01:54:49.335Z,2.00
2022-08-20T01:57:21.288Z,1.97
2022-08-20T01:59:50.265Z,1.70
2022-08-20T02:02:17.389Z,1.80
2022-08-20T02:04:44.535Z,2.20
2022-08-20T02:07:16.121Z,1.90
2022-08-20T02:09:44.389Z,1.97
2022-08-20T02:12:13.914Z,2.20
2022-08-20T02:14:45.085Z,2.07
2022-08-20T02:17:14.118Z,2.10
2022-08-20T02:19:49.256Z,1.90
2022-08-20T02:22:21.869Z,1.87
2022-08-20T02:24:49.297Z,2.10
2022-08-20T02:27:17.401Z,2.00
2022-08-20T02:29:46.712Z,2.10
2022-08-20T02:32:24.847Z,2.00
2022-08-20T02:35:03.155Z,2.00
2022-08-20T02:37:30.928Z,2.17
2022-08-20T02:39:58.094Z,2.00
2022-08-20T02:42:31.127Z,1.93
2022-08-20T02:44:59.807Z,1.90
2022-08-20T02:47:27.704Z,2.40
2022-08-20T02:49:55.454Z,2.20
2022-08-20T02:52:22.770Z,2.30
2022-08-20T02:54:50.315Z,2.20
2022-08-20T02:57:22.759Z,2.20
2022-08-20T02:59:52.273Z,1.70
2022-08-20T03:02:21.517Z,2.00
2022-08-20T03:04:48.682Z,2.23
2022-08-20T03:07:15.667Z,2.30
2022-08-20T03:09:42.781Z,1.90
2022-08-20T03:12:10.650Z,2.13
2022-08-20T03:14:37.968Z,1.97
2022-08-20T03:17:05.227Z,1.97
2022-08-20T03:19:33.711Z,2.10
2022-08-20T03:22:01.181Z,2.00
2022-08-20T03:24:31.310Z,1.93
2022-08-20T03:26:59.006Z,2.07
2022-08-20T03:29:26.004Z,1.87
2022-08-20T03:31:53.090Z,2.23
2022-08-20T03:34:20.164Z,2.17
2022-08-20T03:36:48.552Z,2.00
2022-08-20T03:39:16.228Z,2.10
2022-08-20T03:41:43.183Z,2.03
2022-08-20T03:44:13.404Z,2.00
2022-08-20T03:46:40.487Z,1.93
2022-08-20T03:49:07.979Z,2.03
2022-08-20T03:51:57.369Z,2.03
2022-08-20T03:54:23.505Z,1.93
2022-08-20T03:56:50.688Z,2.20
2022-08-20T03:59:17.676Z,2.10
2022-08-20T04:01:54.622Z,2.20
2022-08-20T04:04:22.128Z,2.00
2022-08-20T04:06:51.566Z,2.00
2022-08-20T04:09:18.768Z,2.10
2022-08-20T04:11:47.243Z,2.33
2022-08-20T04:14:18.481Z,2.20
2022-08-20T04:16:46.395Z,2.50
2022-08-20T04:19:18.879Z,2.60
2022-08-20T04:21:48.409Z,2.60
2022-08-20T04:24:22.513Z,2.00
2022-08-20T04:27:05.051Z,2.27
2022-08-20T04:29:35.278Z,2.10
2022-08-20T04:32:05.900Z,2.57
2022-08-20T04:34:34.410Z,2.23
2022-08-20T04:37:16.556Z,2.67
2022-08-20T04:39:44.793Z,2.40
2022-08-20T04:42:13.278Z,2.40
2022-08-20T04:44:40.323Z,2.20
2022-08-20T04:47:07.971Z,2.50
2022-08-20T04:49:37.648Z,2.33
2022-08-20T04:52:04.789Z,2.40
2022-08-20T04:54:32.634Z,2.83
2022-08-20T04:57:01.444Z,2.13
2022-08-20T04:59:29.863Z,2.80
2022-08-20T05:01:57.025Z,2.40
2022-08-20T05:04:26.446Z,2.70
2022-08-20T05:06:53.578Z,3.53
2022-08-20T05:09:21.241Z,3.50
2022-08-20T05:11:48.749Z,3.23
2022-08-20T05:14:15.726Z,3.30
2022-08-20T05:16:44.234Z,3.17
2022-08-20T05:19:14.014Z,3.77
2022-08-20T05:21:41.751Z,3.70
2022-08-20T05:24:10.365Z,4.07
2022-08-20T05:26:37.535Z,3.80
2022-08-20T05:29:05.630Z,4.20
2022-08-20T05:31:35.842Z,4.60
2022-08-20T05:34:11.519Z,4.70
2022-08-20T05:36:40.705Z,4.70
2022-08-20T05:39:09.036Z,4.93
2022-08-20T05:41:36.412Z,5.40
2022-08-20T05:44:04.285Z,5.83
2022-08-20T05:46:32.283Z,6.20
2022-08-20T05:49:03.442Z,7.30
2022-08-20T05:51:30.692Z,8.27
2022-08-20T05:53:59.712Z,7.50
2022-08-20T05:56:30.599Z,8.67
2022-08-20T05:59:00.699Z,7.70
2022-08-20T06:01:28.010Z,7.93
2022-08-20T06:04:14.754Z,6.83
2022-08-20T06:06:44.671Z,6.73
2022-08-20T06:09:31.933Z,6.70
2022-08-20T06:12:01.724Z,6.83
2022-08-20T06:14:28.929Z,6.47
2022-08-20T06:17:07.650Z,7.57
2022-08-20T06:19:36.061Z,6.40
2022-08-20T06:22:18.086Z,6.90
2022-08-20T06:24:50.092Z,6.73
2022-08-20T06:27:17.735Z,6.50
2022-08-20T06:29:45.007Z,6.27
2022-08-20T06:32:12.108Z,6.33
2022-08-20T06:34:49.941Z,6.33
2022-08-20T06:37:23.516Z,7.20
2022-08-20T06:40:02.887Z,7.10
2022-08-20T06:42:30.033Z,7.37
2022-08-20T06:44:59.499Z,10.47
2022-08-20T06:47:26.512Z,6.37
2022-08-20T06:49:53.550Z,7.00
2022-08-20T06:52:42.819Z,7.73
2022-08-20T06:55:11.416Z,7.67
2022-08-20T06:57:39.262Z,6.03
2022-08-20T07:00:11.067Z,5.50
2022-08-20T07:02:38.287Z,5.23
2022-08-20T07:05:07.009Z,5.57
2022-08-20T07:07:35.431Z,5.03
2022-08-20T07:10:05.307Z,4.93
2022-08-20T07:12:32.560Z,4.43
2022-08-20T07:14:59.518Z,4.33
2022-08-20T07:17:26.553Z,4.07
2022-08-20T07:19:53.694Z,4.03
2022-08-20T07:22:20.685Z,4.63
2022-08-20T07:24:49.366Z,4.23
2022-08-20T07:27:22.471Z,3.80
2022-08-20T07:30:12.889Z,3.70
2022-08-20T07:32:45.283Z,3.47
2022-08-20T07:35:23.208Z,3.57
2022-08-20T07:37:51.943Z,4.00
2022-08-20T07:40:26.107Z,3.63
2022-08-20T07:42:54.189Z,3.40
2022-08-20T07:45:21.760Z,3.40
2022-08-20T07:47:53.658Z,3.20
2022-08-20T07:50:23.794Z,3.33
2022-08-20T07:52:54.136Z,2.93
2022-08-20T07:55:22.711Z,5.00
2022-08-20T07:57:50.605Z,3.17
2022-08-20T08:00:21.056Z,3.80
2022-08-20T08:02:48.294Z,3.20
2022-08-20T08:05:16.116Z,3.10
2022-08-20T08:07:43.446Z,3.20
2022-08-20T08:10:18.454Z,3.03
2022-08-20T08:12:50.342Z,4.20
2022-08-20T08:15:28.644Z,4.07
2022-08-20T08:17:59.180Z,2.83
2022-08-20T08:20:26.228Z,3.07
2022-08-20T08:22:53.795Z,2.90
2022-08-20T08:25:21.035Z,3.10
2022-08-20T08:27:54.675Z,2.83
2022-08-20T08:30:21.721Z,2.97
2022-08-20T08:33:10.365Z,3.03
2022-08-20T08:35:38.179Z,2.60
2022-08-20T08:38:15.326Z,2.70
2022-08-20T08:41:00.042Z,3.10
2022-08-20T08:43:31.866Z,2.90
2022-08-20T08:46:05.187Z,2.50
2022-08-20T08:48:37.314Z,3.10
2022-08-20T08:51:12.370Z,2.80
2022-08-20T08:53:46.260Z,2.60
2022-08-20T08:56:15.013Z,2.80
2022-08-20T08:58:46.465Z,2.57
2022-08-20T09:01:53.729Z,2.50
2022-08-20T09:04:05.782Z,2.30
2022-08-20T09:06:33.571Z,2.30
2022-08-20T09:09:12.211Z,2.00
2022-08-20T09:11:56.182Z,2.00
2022-08-20T09:14:32.345Z,2.03
2022-08-20T09:17:01.667Z,2.10
2022-08-20T09:19:35.016Z,2.33
2022-08-20T09:22:10.543Z,2.20
2022-08-20T09:24:38.194Z,2.37
2022-08-20T09:27:06.131Z,2.10
2022-08-20T09:29:35.049Z,2.17
2022-08-20T09:32:07.129Z,2.30
2022-08-20T09:34:37.067Z,2.47
2022-08-20T09:37:04.639Z,1.83
2022-08-20T09:39:32.080Z,2.07
2022-08-20T09:42:10.713Z,2.13
2022-08-20T09:44:40.523Z,1.80
2022-08-20T09:47:07.930Z,2.13
2022-08-20T09:49:38.428Z,2.93
2022-08-20T09:52:09.112Z,2.93
2022-08-20T09:54:37.784Z,2.20
2022-08-20T09:57:09.873Z,2.30
2022-08-20T09:59:41.490Z,1.70
2022-08-20T10:02:08.676Z,1.57
2022-08-20T10:04:35.821Z,2.00
2022-08-20T10:07:08.570Z,2.40
2022-08-20T10:09:36.654Z,1.77
2022-08-20T10:12:04.672Z,1.60
2022-08-20T10:14:31.797Z,1.30
2022-08-20T10:17:02.273Z,1.37
2022-08-20T10:19:31.314Z,1.13
2022-08-20T10:21:59.817Z,1.60
2022-08-20T10:24:30.174Z,1.00
2022-08-20T10:26:58.924Z,1.23
2022-08-20T10:29:28.062Z,1.10
2022-08-20T10:32:15.171Z,1.10
2022-08-20T10:34:52.077Z,1.30
2022-08-20T10:37:27.042Z,1.47
2022-08-20T10:39:59.338Z,0.90
2022-08-20T10:42:29.623Z,1.20
2022-08-20T10:44:59.999Z,1.57
2022-08-20T10:47:31.087Z,1.30
2022-08-20T10:50:05.766Z,1.10
2022-08-20T10:52:32.824Z,1.07
2022-08-20T10:55:04.751Z,1.40
2022-08-20T10:57:33.686Z,2.00
2022-08-20T11:00:01.507Z,1.53
2022-08-20T11:02:31.367Z,1.37
2022-08-20T11:05:08.588Z,1.30
2022-08-20T11:07:52.761Z,1.90
2022-08-20T11:10:27.682Z,2.00
2022-08-20T11:12:54.872Z,1.37
2022-08-20T11:15:25.237Z,1.30
2022-08-20T11:17:53.823Z,2.00
2022-08-20T11:20:27.857Z,2.30
2022-08-20T11:23:02.209Z,1.60
2022-08-20T11:25:29.750Z,1.70
2022-08-20T11:28:05.894Z,1.10
2022-08-20T11:30:36.108Z,1.33
2022-08-20T11:33:06.009Z,1.33
2022-08-20T11:35:43.450Z,1.23
2022-08-20T11:38:18.426Z,1.23
2022-08-20T11:40:48.860Z,1.33
2022-08-20T11:43:17.594Z,1.10
2022-08-20T11:45:55.516Z,2.50
2022-08-20T11:48:24.098Z,2.37
2022-08-20T11:50:51.373Z,1.37
2022-08-20T11:53:18.523Z,1.33
2022-08-20T11:55:47.750Z,1.70
2022-08-20T11:58:14.884Z,1.17
2022-08-20T12:00:42.089Z,1.70
2022-08-20T12:03:09.991Z,4.30
2022-08-20T12:05:43.230Z,2.37
2022-08-20T12:08:26.919Z,2.00
2022-08-20T12:11:05.907Z,2.00
2022-08-20T12:13:47.816Z,1.90
2022-08-20T12:16:21.916Z,2.40
2022-08-20T12:18:49.286Z,2.40
2022-08-20T12:21:20.950Z,1.73
2022-08-20T12:23:54.371Z,1.50
2022-08-20T12:26:21.527Z,1.53
2022-08-20T12:28:48.513Z,2.10
2022-08-20T12:31:21.567Z,2.33
2022-08-20T12:33:48.599Z,2.97
2022-08-20T12:36:15.653Z,2.23
2022-08-20T12:38:44.146Z,3.70
2022-08-20T12:41:11.393Z,2.20
2022-08-20T12:43:39.315Z,2.47
2022-08-20T12:46:06.664Z,2.77
2022-08-20T12:48:33.734Z,2.73
2022-08-20T12:51:03.869Z,1.80
2022-08-20T12:53:33.719Z,2.30
2022-08-20T12:56:05.343Z,2.07
2022-08-20T12:58:32.528Z,2.20
2022-08-20T13:00:59.590Z,1.80
2022-08-20T13:03:26.731Z,3.03
2022-08-20T13:06:01.569Z,2.70
2022-08-20T13:08:29.807Z,2.07
2022-08-20T13:10:56.801Z,3.70
2022-08-20T13:13:25.313Z,2.30
2022-08-20T13:15:52.311Z,2.60
2022-08-20T13:18:21.915Z,4.23
2022-08-20T13:20:49.670Z,2.30
2022-08-20T13:23:16.888Z,1.77
2022-08-20T13:25:44.025Z,2.23
2022-08-20T13:28:11.538Z,2.33
2022-08-20T13:30:41.273Z,2.20
2022-08-20T13:33:08.515Z,2.87
2022-08-20T13:35:39.525Z,3.97
2022-08-20T13:38:06.822Z,2.67
2022-08-20T13:40:33.935Z,2.40
2022-08-20T13:43:06.004Z,2.53
2022-08-20T13:45:35.673Z,2.47
2022-08-20T13:48:10.034Z,2.77
2022-08-20T13:50:43.986Z,2.33
2022-08-20T13:53:15.801Z,2.60
2022-08-20T13:55:45.634Z,2.00
2022-08-20T13:58:12.860Z,2.37
2022-08-20T14:00:40.171Z,3.40
2022-08-20T14:03:08.601Z,2.50
2022-08-20T14:05:36.719Z,2.60
2022-08-20T14:08:10.768Z,2.33
2022-08-20T14:10:39.248Z,3.30
2022-08-20T14:13:15.136Z,2.13
2022-08-20T14:15:43.893Z,2.80
2022-08-20T14:18:15.461Z,2.83
2022-08-20T14:20:45.495Z,2.43
2022-08-20T14:23:13.169Z,2.40
2022-08-20T14:25:40.440Z,2.53
2022-08-20T14:28:14.018Z,2.33
2022-08-20T14:30:41.702Z,2.33
2022-08-20T14:33:09.219Z,2.30
2022-08-20T14:35:38.222Z,2.13
2022-08-20T14:38:05.678Z,2.00
2022-08-20T14:40:34.159Z,2.03
2022-08-20T14:43:02.177Z,2.17
2022-08-20T14:45:29.362Z,2.10
2022-08-20T14:47:58.199Z,2.40
2022-08-20T14:50:31.359Z,3.00
2022-08-20T14:53:01.029Z,2.67
2022-08-20T14:55:31.395Z,3.17
2022-08-20T14:57:58.675Z,2.60
2022-08-20T15:00:31.078Z,2.53
2022-08-20T15:02:58.446Z,2.27
2022-08-20T15:05:26.320Z,2.07
2022-08-20T15:07:55.706Z,2.20
2022-08-20T15:10:28.035Z,2.43
2022-08-20T15:12:55.955Z,1.93
2022-08-20T15:15:24.774Z,2.30
2022-08-20T15:17:55.180Z,2.70
2022-08-20T15:20:26.839Z,1.80
2022-08-20T15:22:54.481Z,2.27
2022-08-20T15:25:26.367Z,2.10
2022-08-20T15:27:58.329Z,2.57
2022-08-20T15:30:31.056Z,2.30
2022-08-20T15:32:58.427Z,3.30
2022-08-20T15:35:28.274Z,2.30
2022-08-20T15:37:58.410Z,2.40
2022-08-20T15:40:30.620Z,2.40
2022-08-20T15:42:58.895Z,2.40
2022-08-20T15:45:26.871Z,2.70
2022-08-20T15:48:00.889Z,2.47
2022-08-20T15:50:44.800Z,2.87
2022-08-20T15:53:22.094Z,3.07
2022-08-20T15:56:00.320Z,2.10
2022-08-20T15:58:36.482Z,3.80
2022-08-20T16:01:24.702Z,2.17
2022-08-20T16:04:10.554Z,3.97
2022-08-20T16:06:38.875Z,3.60
2022-08-20T16:09:37.934Z,2.60
2022-08-20T16:12:11.218Z,3.03
2022-08-20T16:14:42.051Z,3.37
2022-08-20T16:17:16.875Z,3.20
2022-08-20T16:19:54.224Z,2.80
2022-08-20T16:22:22.235Z,2.50
2022-08-20T16:24:50.227Z,3.53
2022-08-20T16:27:28.463Z,3.57
2022-08-20T16:30:01.109Z,3.73
2022-08-20T16:32:39.153Z,4.53
2022-08-20T16:35:27.663Z,4.20
2022-08-20T16:38:08.104Z,4.10
2022-08-20T16:40:49.408Z,4.10
2022-08-20T16:43:29.309Z,4.17
2022-08-20T16:46:02.952Z,3.47
2022-08-20T16:48:36.133Z,3.23
2022-08-20T16:51:07.274Z,3.60
2022-08-20T16:53:36.614Z,3.33
2022-08-20T16:56:05.348Z,3.90
2022-08-20T16:58:34.116Z,3.10
2022-08-20T17:01:13.881Z,3.50
2022-08-20T17:03:50.164Z,3.27
2022-08-20T17:06:26.128Z,3.43
2022-08-20T17:08:53.781Z,3.50
2022-08-20T17:11:30.973Z,3.20
2022-08-20T17:14:14.519Z,2.90
2022-08-20T17:16:47.116Z,3.53
2022-08-20T17:19:20.450Z,2.90
2022-08-20T17:21:50.801Z,3.00
2022-08-20T17:24:31.286Z,3.47
2022-08-20T17:27:02.182Z,3.90
2022-08-20T17:29:33.976Z,3.67
2022-08-20T17:32:09.902Z,3.00
2022-08-20T17:34:47.254Z,3.17
2022-08-20T17:37:33.319Z,2.63
2022-08-20T17:40:17.411Z,2.80
2022-08-20T17:42:51.647Z,2.80
2022-08-20T17:45:25.058Z,3.00
2022-08-20T17:47:55.280Z,3.10
2022-08-20T17:50:30.935Z,3.00
2022-08-20T17:53:21.190Z,3.70
2022-08-20T17:56:00.911Z,3.33
2022-08-20T17:58:55.173Z,3.13
2022-08-20T18:01:25.950Z,3.07
2022-08-20T18:03:53.962Z,4.00
2022-08-20T18:06:30.848Z,3.37
2022-08-20T18:09:09.670Z,3.73
2022-08-20T18:11:44.079Z,2.80
2022-08-20T18:14:39.742Z,2.73
2022-08-20T18:17:16.997Z,3.63
2022-08-20T18:20:14.500Z,3.50
2022-08-20T18:22:54.661Z,3.40
2022-08-20T18:25:33.154Z,4.33
2022-08-20T18:28:07.439Z,3.60
2022-08-20T18:30:35.138Z,3.33
2022-08-20T18:33:10.373Z,3.70
2022-08-20T18:35:46.193Z,4.63
2022-08-20T18:38:29.068Z,3.73
2022-08-20T18:41:11.360Z,4.77
2022-08-20T18:43:39.274Z,4.00
2022-08-20T18:46:22.705Z,3.53
2022-08-20T18:48:58.418Z,3.40
2022-08-20T18:51:40.073Z,4.07
2022-08-20T18:54:23.864Z,3.57
2022-08-20T18:57:06.623Z,3.20
2022-08-20T18:59:50.689Z,3.80
2022-08-20T19:02:25.261Z,3.97
2022-08-20T19:05:02.753Z,4.70
2022-08-20T19:07:48.659Z,4.20
2022-08-20T19:10:48.752Z,6.20
2022-08-20T19:14:04.235Z,6.23
2022-08-20T19:16:39.966Z,3.27
2022-08-20T19:19:19.878Z,3.80
2022-08-20T19:21:56.329Z,3.73
2022-08-20T19:24:27.598Z,3.90
2022-08-20T19:27:00.380Z,4.50
2022-08-20T19:29:32.226Z,3.20
2022-08-20T19:32:00.714Z,6.10
2022-08-20T19:34:32.145Z,6.37
2022-08-20T19:37:28.176Z,4.90
2022-08-20T19:39:55.004Z,3.23
2022-08-20T19:42:28.275Z,2.90
2022-08-20T19:44:59.611Z,3.83
2022-08-20T19:47:33.006Z,4.60
2022-08-20T19:50:18.036Z,4.30
2022-08-20T19:53:07.915Z,3.70
2022-08-20T19:55:38.697Z,4.77
2022-08-20T19:58:12.231Z,4.30
2022-08-20T20:00:53.970Z,4.50
2022-08-20T20:03:26.588Z,4.10
2022-08-20T20:05:57.395Z,3.80
2022-08-20T20:08:39.281Z,3.80
2022-08-20T20:11:06.768Z,3.80
2022-08-20T20:13:37.633Z,3.60
2022-08-20T20:16:11.410Z,3.53
2022-08-20T20:18:42.362Z,3.37
2022-08-20T20:21:14.865Z,3.60
2022-08-20T20:23:53.460Z,4.33
2022-08-20T20:26:20.883Z,4.00
2022-08-20T20:28:51.549Z,3.80
2022-08-20T20:31:25.901Z,4.90
2022-08-20T20:33:56.724Z,3.93
2022-08-20T20:36:38.232Z,6.50
2022-08-20T20:39:14.199Z,4.87
2022-08-20T20:41:53.761Z,3.63
2022-08-20T20:44:24.543Z,4.23
2022-08-20T20:46:56.546Z,6.60
2022-08-20T20:49:26.226Z,4.17
2022-08-20T20:51:58.704Z,4.47
2022-08-20T20:54:40.450Z,3.80
2022-08-20T20:57:25.571Z,4.83
2022-08-20T21:00:11.596Z,4.20
2022-08-20T21:02:38.702Z,9.10
2022-08-20T21:05:06.956Z,4.63
2022-08-20T21:07:34.027Z,5.10
2022-08-20T21:10:03.535Z,5.03
2022-08-20T21:12:30.709Z,4.80
2022-08-20T21:14:57.717Z,4.30
2022-08-20T21:17:25.261Z,4.70
2022-08-20T21:19:53.041Z,3.77
2022-08-20T21:22:23.690Z,4.03
2022-08-20T21:24:51.419Z,3.83
2022-08-20T21:27:23.503Z,4.00
2022-08-20T21:29:52.812Z,3.90
2022-08-20T21:32:21.265Z,3.93
2022-08-20T21:34:49.666Z,6.00
2022-08-20T21:37:17.900Z,4.83
2022-08-20T21:39:45.139Z,4.60
2022-08-20T21:42:29.052Z,5.07
2022-08-20T21:44:58.990Z,4.50
2022-08-20T21:47:28.612Z,3.77
2022-08-20T21:49:55.906Z,3.37
2022-08-20T21:52:23.176Z,4.40
2022-08-20T21:54:50.309Z,4.63
2022-08-20T21:57:24.093Z,4.13
2022-08-20T21:59:52.235Z,3.70
2022-08-20T22:02:21.708Z,4.37
2022-08-20T22:04:53.992Z,4.03
2022-08-20T22:07:22.075Z,4.43
2022-08-20T22:09:49.206Z,4.63
2022-08-20T22:12:20.153Z,9.70
2022-08-20T22:14:47.318Z,5.07
2022-08-20T22:17:15.314Z,3.73
2022-08-20T22:19:43.862Z,4.00
2022-08-20T22:22:13.284Z,3.80
2022-08-20T22:24:40.403Z,3.87
2022-08-20T22:27:07.964Z,5.40
2022-08-20T22:29:35.221Z,4.20
2022-08-20T22:32:03.306Z,4.70
2022-08-20T22:34:34.277Z,3.90
2022-08-20T22:37:05.895Z,4.17
2022-08-20T22:39:32.955Z,4.23
2022-08-20T22:42:00.198Z,4.10
2022-08-20T22:44:27.408Z,3.37
2022-08-20T22:46:58.799Z,4.03
2022-08-20T22:49:32.687Z,3.97
2022-08-20T22:52:00.358Z,3.20
2022-08-20T22:54:29.101Z,4.07
2022-08-20T22:56:59.276Z,4.23
2022-08-20T22:59:29.428Z,4.10
2022-08-20T23:01:58.236Z,3.77
2022-08-20T23:04:29.279Z,4.00
2022-08-20T23:06:57.568Z,3.90
2022-08-20T23:09:25.468Z,3.57
2022-08-20T23:11:56.618Z,4.13
2022-08-20T23:14:23.666Z,3.70
2022-08-20T23:17:00.216Z,4.10
2022-08-20T23:19:29.905Z,3.90
2022-08-20T23:21:59.494Z,3.50
2022-08-20T23:24:26.628Z,3.40
2022-08-20T23:26:55.175Z,3.50
2022-08-20T23:29:25.524Z,3.37
2022-08-20T23:31:57.395Z,3.47
2022-08-20T23:34:27.804Z,3.20
2022-08-20T23:37:00.354Z,3.33
2022-08-20T23:39:28.467Z,3.23
2022-08-20T23:41:59.118Z,3.00
2022-08-20T23:44:29.898Z,3.77
2022-08-20T23:47:00.224Z,3.37
2022-08-20T23:49:28.870Z,3.00
2022-08-20T23:51:57.654Z,3.23
2022-08-20T23:54:24.686Z,3.60
2022-08-20T23:56:51.901Z,3.13
2022-08-20T23:59:26.044Z,2.87
